createdAt,value
2022-10-19T00:01:27.747Z,14.05
2022-10-19T00:03:57.788Z,13.84
2022-10-19T00:06:26.983Z,13.82
2022-10-19T00:09:00.949Z,13.81
2022-10-19T00:11:30.384Z,13.76
2022-10-19T00:14:01.994Z,13.61
2022-10-19T00:16:31.289Z,13.63
2022-10-19T00:19:04.677Z,13.78
2022-10-19T00:21:32.979Z,13.68
2022-10-19T00:24:05.779Z,13.84
2022-10-19T00:26:34.072Z,13.81
2022-10-19T00:29:05.081Z,13.72
2022-10-19T00:31:34.114Z,13.76
2022-10-19T00:34:06.684Z,13.65
2022-10-19T00:36:36.251Z,13.64
2022-10-19T00:39:07.802Z,13.50
2022-10-19T00:41:36.497Z,13.62
2022-10-19T00:44:06.199Z,13.83
2022-10-19T00:46:35.332Z,13.78
2022-10-19T00:49:10.988Z,13.79
2022-10-19T00:51:40.650Z,13.75
2022-10-19T00:54:13.489Z,13.82
2022-10-19T00:56:43.050Z,13.79
2022-10-19T00:59:13.416Z,13.87
2022-10-19T01:01:42.350Z,14.00
2022-10-19T01:04:14.586Z,13.86
2022-10-19T01:06:43.246Z,13.99
2022-10-19T01:09:16.213Z,14.05
2022-10-19T01:11:45.271Z,14.23
2022-10-19T01:14:18.187Z,14.10
2022-10-19T01:16:48.793Z,14.22
2022-10-19T01:19:30.489Z,14.05
2022-10-19T01:22:01.635Z,14.18
2022-10-19T01:24:43.581Z,14.42
2022-10-19T01:27:39.321Z,14.38
2022-10-19T01:30:10.305Z,14.38
2022-10-19T01:32:53.835Z,14.50
2022-10-19T01:35:28.787Z,14.42
2022-10-19T01:38:16.142Z,14.56
2022-10-19T01:40:46.671Z,14.28
2022-10-19T01:43:18.794Z,14.46
2022-10-19T01:45:49.256Z,14.55
2022-10-19T01:48:21.653Z,14.58
2022-10-19T01:50:51.461Z,14.50
2022-10-19T01:53:20.966Z,14.48
2022-10-19T01:55:50.671Z,14.33
2022-10-19T01:58:23.628Z,14.46
2022-10-19T02:00:54.139Z,14.37
2022-10-19T02:03:24.249Z,14.56
2022-10-19T02:05:53.066Z,14.62
2022-10-19T02:08:24.215Z,14.48
2022-10-19T02:10:53.636Z,14.61
2022-10-19T02:13:26.895Z,14.41
2022-10-19T02:15:57.067Z,14.46
2022-10-19T02:18:26.863Z,14.47
2022-10-19T02:20:55.802Z,14.22
2022-10-19T02:23:28.145Z,14.28
2022-10-19T02:25:57.039Z,14.40
2022-10-19T02:28:29.982Z,14.40
2022-10-19T02:31:00.566Z,14.37
2022-10-19T02:33:29.720Z,14.40
2022-10-19T02:35:58.140Z,14.30
2022-10-19T02:38:32.610Z,14.27
2022-10-19T02:41:04.136Z,14.31
2022-10-19T02:43:34.929Z,14.20
2022-10-19T02:46:06.026Z,14.12
2022-10-19T02:48:35.663Z,14.16
2022-10-19T02:51:03.946Z,14.16
2022-10-19T02:53:32.757Z,14.26
2022-10-19T02:56:05.404Z,14.28
2022-10-19T02:58:40.437Z,14.06
2022-10-19T03:01:10.463Z,14.30
2022-10-19T03:03:39.096Z,14.23
2022-10-19T03:06:07.694Z,14.25
2022-10-19T03:08:38.485Z,14.22
2022-10-19T03:11:07.436Z,14.27
2022-10-19T03:13:38.019Z,14.27
2022-10-19T03:16:11.477Z,14.24
2022-10-19T03:18:46.691Z,14.24
2022-10-19T03:21:14.980Z,14.09
2022-10-19T03:23:46.214Z,14.32
2022-10-19T03:26:16.941Z,13.97
2022-10-19T03:28:46.991Z,13.91
2022-10-19T03:31:16.606Z,14.13
2022-10-19T03:33:51.028Z,14.28
2022-10-19T03:36:23.351Z,14.35
2022-10-19T03:38:56.585Z,14.22
2022-10-19T03:46:38.797Z,14.28
2022-10-19T03:49:07.419Z,14.02
2022-10-19T03:51:43.824Z,14.15
2022-10-19T03:54:16.106Z,14.12
2022-10-19T03:56:45.002Z,14.09
2022-10-19T03:59:19.756Z,13.93
2022-10-19T04:01:49.920Z,14.12
2022-10-19T04:04:20.153Z,14.16
2022-10-19T04:06:49.178Z,14.39
2022-10-19T04:09:19.119Z,14.32
2022-10-19T04:11:48.126Z,14.40
2022-10-19T04:14:26.821Z,14.27
2022-10-19T04:17:06.452Z,14.53
2022-10-19T04:19:35.093Z,14.60
2022-10-19T04:22:05.641Z,14.55
2022-10-19T04:24:33.915Z,14.24
2022-10-19T04:27:04.063Z,14.33
2022-10-19T04:29:35.773Z,14.39
2022-10-19T04:32:09.748Z,14.25
2022-10-19T04:34:40.042Z,14.15
2022-10-19T04:37:09.606Z,14.33
2022-10-19T04:39:41.245Z,14.25
2022-10-19T04:42:11.059Z,13.99
2022-10-19T04:44:39.718Z,14.09
2022-10-19T04:47:13.508Z,14.05
2022-10-19T04:49:42.398Z,14.13
2022-10-19T04:52:14.504Z,14.30
2022-10-19T04:54:43.362Z,14.15
2022-10-19T04:57:13.497Z,14.13
2022-10-19T04:59:42.099Z,14.12
2022-10-19T05:02:17.793Z,13.97
2022-10-19T05:04:48.566Z,14.15
2022-10-19T05:07:17.715Z,14.14
2022-10-19T05:09:45.926Z,13.72
2022-10-19T05:12:19.061Z,13.57
2022-10-19T05:14:47.610Z,13.58
2022-10-19T05:17:25.203Z,13.60
2022-10-19T05:19:54.183Z,13.39
2022-10-19T05:22:23.050Z,13.27
2022-10-19T05:24:54.514Z,13.29
2022-10-19T05:27:27.110Z,13.28
2022-10-19T05:29:55.697Z,13.26
2022-10-19T05:32:26.531Z,13.06
2022-10-19T05:34:55.883Z,13.22
2022-10-19T05:37:25.736Z,13.33
2022-10-19T05:39:55.501Z,13.42
2022-10-19T05:42:24.660Z,13.14
2022-10-19T05:44:53.605Z,13.29
2022-10-19T05:47:26.230Z,13.57
2022-10-19T05:49:58.664Z,13.60
2022-10-19T05:52:30.692Z,13.55
2022-10-19T05:54:59.369Z,13.42
2022-10-19T05:57:34.084Z,13.71
2022-10-19T06:00:03.193Z,13.63
2022-10-19T06:02:40.320Z,13.58
2022-10-19T06:05:12.020Z,13.76
2022-10-19T06:07:43.568Z,13.60
2022-10-19T06:10:12.399Z,13.84
2022-10-19T06:12:44.236Z,13.61
2022-10-19T06:15:19.536Z,13.90
2022-10-19T06:17:48.127Z,14.05
2022-10-19T06:20:27.086Z,14.30
2022-10-19T06:22:55.957Z,14.34
2022-10-19T06:25:27.908Z,14.26
2022-10-19T06:28:06.099Z,14.37
2022-10-19T06:30:35.692Z,14.51
2022-10-19T06:33:06.318Z,14.28
2022-10-19T06:35:37.466Z,14.46
2022-10-19T06:38:07.891Z,14.59
2022-10-19T06:40:36.544Z,14.79
2022-10-19T06:43:05.735Z,14.80
2022-10-19T06:45:36.001Z,14.57
2022-10-19T06:48:08.100Z,14.83
2022-10-19T06:50:37.702Z,14.49
2022-10-19T06:53:09.394Z,14.75
2022-10-19T06:55:37.660Z,14.77
2022-10-19T07:00:38.253Z,14.94
2022-10-19T07:03:09.312Z,14.97
2022-10-19T07:05:42.822Z,14.93
2022-10-19T07:08:12.269Z,14.40
2022-10-19T07:10:43.759Z,14.52
2022-10-19T07:13:12.627Z,14.95
2022-10-19T07:15:41.944Z,14.54
2022-10-19T07:18:10.517Z,14.87
2022-10-19T07:20:43.659Z,14.82
2022-10-19T07:23:19.867Z,15.02
2022-10-19T07:25:48.764Z,15.07
2022-10-19T07:28:17.663Z,15.44
2022-10-19T07:30:49.058Z,15.42
2022-10-19T07:33:23.093Z,15.70
2022-10-19T07:35:59.581Z,15.63
2022-10-19T07:38:31.399Z,15.66
2022-10-19T07:41:05.264Z,15.72
2022-10-19T07:43:33.922Z,15.98
2022-10-19T07:46:02.934Z,16.02
2022-10-19T07:48:34.572Z,15.85
2022-10-19T07:51:05.362Z,16.04
2022-10-19T07:53:35.507Z,15.90
2022-10-19T07:56:06.118Z,15.88
2022-10-19T07:58:37.514Z,15.87
2022-10-19T08:01:12.355Z,15.76
2022-10-19T08:04:31.763Z,15.91
2022-10-19T08:06:32.163Z,16.11
2022-10-19T08:09:03.987Z,16.59
2022-10-19T08:11:34.102Z,16.86
2022-10-19T08:14:05.722Z,16.81
2022-10-19T08:16:39.212Z,16.96
2022-10-19T08:19:08.615Z,17.06
2022-10-19T08:21:44.734Z,17.06
2022-10-19T08:24:14.130Z,17.23
2022-10-19T08:26:44.498Z,17.09
2022-10-19T08:29:13.665Z,17.47
2022-10-19T08:31:44.083Z,17.35
2022-10-19T08:34:12.965Z,17.39
2022-10-19T08:36:50.465Z,17.57
2022-10-19T08:39:19.339Z,17.37
2022-10-19T08:41:55.254Z,17.66
2022-10-19T08:44:28.566Z,17.86
2022-10-19T08:47:01.529Z,18.24
2022-10-19T08:49:40.934Z,17.96
2022-10-19T08:52:14.075Z,18.24
2022-10-19T08:54:43.842Z,18.38
2022-10-19T08:57:16.888Z,18.29
2022-10-19T08:59:46.599Z,18.20
2022-10-19T09:02:16.611Z,18.07
2022-10-19T09:04:46.650Z,18.24
2022-10-19T09:07:22.033Z,18.50
2022-10-19T09:09:59.211Z,18.55
2022-10-19T09:12:35.377Z,18.47
2022-10-19T09:15:05.811Z,18.85
2022-10-19T09:17:35.583Z,18.87
2022-10-19T09:20:14.989Z,18.75
2022-10-19T09:22:45.165Z,18.86
2022-10-19T09:25:15.104Z,18.67
2022-10-19T09:27:44.908Z,18.90
2022-10-19T09:30:17.302Z,18.64
2022-10-19T09:32:48.222Z,18.94
2022-10-19T09:35:20.735Z,19.20
2022-10-19T09:37:59.799Z,18.85
2022-10-19T09:40:30.502Z,19.13
2022-10-19T09:43:03.005Z,19.38
2022-10-19T09:45:34.302Z,19.36
2022-10-19T09:48:07.139Z,19.74
2022-10-19T09:50:39.931Z,19.34
2022-10-19T09:53:17.071Z,19.60
2022-10-19T09:58:29.147Z,19.55
2022-10-19T10:01:01.176Z,19.66
2022-10-19T10:03:30.746Z,19.60
2022-10-19T10:06:03.678Z,19.75
2022-10-19T10:08:34.995Z,19.65
2022-10-19T10:11:08.395Z,19.82
2022-10-19T10:13:46.114Z,19.27
2022-10-19T10:16:15.934Z,18.76
2022-10-19T10:18:50.921Z,19.14
2022-10-19T10:24:22.674Z,19.08
2022-10-19T10:26:54.591Z,19.33
2022-10-19T10:29:23.590Z,19.67
2022-10-19T10:31:55.602Z,19.78
2022-10-19T10:34:45.409Z,19.78
2022-10-19T10:37:18.329Z,19.48
2022-10-19T10:39:48.267Z,19.52
2022-10-19T10:42:18.691Z,19.57
2022-10-19T10:44:47.306Z,19.80
2022-10-19T10:47:20.501Z,19.50
2022-10-19T10:49:54.668Z,19.45
2022-10-19T10:52:27.739Z,19.36
2022-10-19T10:57:49.793Z,19.55
2022-10-19T11:00:19.240Z,19.58
2022-10-19T11:02:52.769Z,19.72
2022-10-19T11:05:25.171Z,19.78
2022-10-19T11:07:54.679Z,19.39
2022-10-19T11:10:27.182Z,19.53
2022-10-19T11:12:59.303Z,19.32
2022-10-19T11:15:33.005Z,19.48
2022-10-19T11:18:04.203Z,19.43
2022-10-19T11:20:37.500Z,19.65
2022-10-19T11:23:09.149Z,19.43
2022-10-19T11:25:50.121Z,19.38
2022-10-19T11:28:22.460Z,19.32
2022-10-19T11:31:02.293Z,19.59
2022-10-19T11:33:35.739Z,19.44
2022-10-19T11:36:13.567Z,19.27
2022-10-19T11:38:44.546Z,19.19
2022-10-19T11:41:27.339Z,19.16
2022-10-19T11:44:00.185Z,19.18
2022-10-19T11:46:43.388Z,19.32
2022-10-19T11:49:14.847Z,19.24
2022-10-19T11:51:53.192Z,19.70
2022-10-19T11:54:25.962Z,19.59
2022-10-19T11:57:05.587Z,19.71
2022-10-19T11:59:39.143Z,19.42
2022-10-19T12:02:21.811Z,19.05
2022-10-19T12:04:52.568Z,19.28
2022-10-19T12:07:38.969Z,19.10
2022-10-19T12:10:13.184Z,19.29
2022-10-19T12:12:47.266Z,19.27
2022-10-19T12:15:24.196Z,18.96
2022-10-19T12:17:54.295Z,19.14
2022-10-19T12:20:27.635Z,18.91
2022-10-19T12:22:56.993Z,19.13
2022-10-19T12:25:30.420Z,19.10
2022-10-19T12:27:59.319Z,19.00
2022-10-19T12:30:31.217Z,19.19
2022-10-19T12:33:03.186Z,18.87
2022-10-19T12:35:46.885Z,18.94
2022-10-19T12:38:16.914Z,18.96
2022-10-19T12:40:46.459Z,18.73
2022-10-19T12:43:15.525Z,18.83
2022-10-19T12:45:46.857Z,18.69
2022-10-19T12:48:22.626Z,19.05
2022-10-19T12:51:12.001Z,18.79
2022-10-19T12:53:42.286Z,18.90
2022-10-19T12:56:12.867Z,19.16
2022-10-19T12:58:48.574Z,19.01
2022-10-19T13:01:20.229Z,18.81
2022-10-19T13:03:54.359Z,18.77
2022-10-19T13:06:31.606Z,18.79
2022-10-19T13:09:01.090Z,19.10
2022-10-19T13:11:36.593Z,19.02
2022-10-19T13:14:11.539Z,18.96
2022-10-19T13:16:56.682Z,19.09
2022-10-19T13:19:25.628Z,19.31
2022-10-19T13:22:22.674Z,19.26
2022-10-19T13:25:10.264Z,18.86
2022-10-19T13:27:41.788Z,18.70
2022-10-19T13:30:25.591Z,18.59
2022-10-19T13:32:55.239Z,18.62
2022-10-19T13:35:28.527Z,18.76
2022-10-19T13:38:13.204Z,18.84
2022-10-19T13:40:45.394Z,18.49
2022-10-19T13:43:17.846Z,18.24
2022-10-19T13:45:54.519Z,18.60
2022-10-19T13:48:25.655Z,18.61
2022-10-19T13:50:54.804Z,18.91
2022-10-19T13:53:24.959Z,18.79
2022-10-19T13:56:02.975Z,19.12
2022-10-19T13:58:49.331Z,19.02
2022-10-19T14:01:24.680Z,18.83
2022-10-19T14:03:59.985Z,18.58
2022-10-19T14:06:29.416Z,18.58
2022-10-19T14:09:15.190Z,18.51
2022-10-19T14:11:48.414Z,18.38
2022-10-19T14:14:22.684Z,18.16
2022-10-19T14:16:59.707Z,18.10
2022-10-19T14:19:44.613Z,17.91
2022-10-19T14:22:20.314Z,17.76
2022-10-19T14:24:57.565Z,17.76
2022-10-19T14:27:26.635Z,17.67
2022-10-19T14:30:09.190Z,17.85
2022-10-19T14:32:37.852Z,17.95
2022-10-19T14:35:23.346Z,17.82
2022-10-19T14:37:51.661Z,17.82
2022-10-19T14:40:26.812Z,17.37
2022-10-19T14:42:58.230Z,17.45
2022-10-19T14:45:34.841Z,17.12
2022-10-19T14:48:04.269Z,17.31
2022-10-19T14:50:48.339Z,17.17
2022-10-19T14:53:31.781Z,17.38
2022-10-19T14:56:02.772Z,17.15
2022-10-19T14:58:31.493Z,17.39
2022-10-19T15:01:00.679Z,17.47
2022-10-19T15:03:32.409Z,17.41
2022-10-19T15:06:01.578Z,17.36
2022-10-19T15:08:33.902Z,17.23
2022-10-19T15:11:04.178Z,17.42
2022-10-19T15:13:35.966Z,17.23
2022-10-19T15:16:04.953Z,17.01
2022-10-19T15:18:48.772Z,16.97
2022-10-19T15:21:19.860Z,17.12
2022-10-19T15:23:48.565Z,16.85
2022-10-19T15:26:20.471Z,16.94
2022-10-19T15:28:49.430Z,16.81
2022-10-19T15:31:21.620Z,17.03
2022-10-19T15:33:51.302Z,16.77
2022-10-19T15:36:21.708Z,16.70
2022-10-19T15:38:51.463Z,16.64
2022-10-19T15:41:26.260Z,16.70
2022-10-19T15:43:56.724Z,16.59
2022-10-19T15:46:27.057Z,16.43
2022-10-19T15:48:56.955Z,16.59
2022-10-19T15:51:33.281Z,16.57
2022-10-19T15:54:02.790Z,16.38
2022-10-19T15:56:37.782Z,16.50
2022-10-19T15:59:10.317Z,16.60
2022-10-19T16:01:39.610Z,16.55
2022-10-19T16:04:12.492Z,16.38
2022-10-19T16:06:41.938Z,15.94
2022-10-19T16:09:14.856Z,16.35
2022-10-19T16:11:45.118Z,15.92
2022-10-19T16:14:17.892Z,16.09
2022-10-19T16:16:46.459Z,15.71
2022-10-19T16:19:16.605Z,15.78
2022-10-19T16:21:50.037Z,15.85
2022-10-19T16:24:26.016Z,15.90
2022-10-19T16:27:01.657Z,15.53
2022-10-19T16:29:30.543Z,15.62
2022-10-19T16:31:59.487Z,15.75
2022-10-19T16:34:28.010Z,15.82
2022-10-19T16:36:56.877Z,15.48
2022-10-19T16:39:26.395Z,15.60
2022-10-19T16:41:59.171Z,15.31
2022-10-19T16:44:33.077Z,15.40
2022-10-19T16:47:03.564Z,15.70
2022-10-19T16:49:39.626Z,15.60
2022-10-19T16:52:07.845Z,15.68
2022-10-19T16:54:37.461Z,15.67
2022-10-19T16:57:12.212Z,15.61
2022-10-19T16:59:41.532Z,15.88
2022-10-19T17:02:13.564Z,15.54
2022-10-19T17:04:42.592Z,15.53
2022-10-19T17:07:13.238Z,15.54
2022-10-19T17:09:42.802Z,15.36
2022-10-19T17:12:15.540Z,15.26
2022-10-19T17:14:44.120Z,15.14
2022-10-19T17:17:15.074Z,15.28
2022-10-19T17:19:44.071Z,15.13
2022-10-19T17:22:15.943Z,15.17
2022-10-19T17:24:46.624Z,14.77
2022-10-19T17:27:21.341Z,14.67
2022-10-19T17:29:51.268Z,14.52
2022-10-19T17:32:23.379Z,14.53
2022-10-19T17:34:51.852Z,14.47
2022-10-19T17:37:20.847Z,14.51
2022-10-19T17:39:51.548Z,14.38
2022-10-19T17:42:26.820Z,14.52
2022-10-19T17:44:55.812Z,14.48
2022-10-19T17:47:30.843Z,14.19
2022-10-19T17:50:02.779Z,14.55
2022-10-19T17:52:32.131Z,14.64
2022-10-19T17:55:13.042Z,14.71
2022-10-19T17:57:51.018Z,14.61
2022-10-19T18:00:19.958Z,14.55
2022-10-19T18:02:52.474Z,14.54
2022-10-19T18:05:21.332Z,14.18
2022-10-19T18:07:52.086Z,14.35
2022-10-19T18:10:21.550Z,14.29
2022-10-19T18:12:54.682Z,14.65
2022-10-19T18:15:23.966Z,14.50
2022-10-19T18:17:58.110Z,14.43
2022-10-19T18:20:27.304Z,13.93
2022-10-19T18:22:57.699Z,13.77
2022-10-19T18:25:49.307Z,14.09
2022-10-19T18:28:24.031Z,13.87
2022-10-19T18:30:53.335Z,14.15
2022-10-19T18:33:24.090Z,14.05
2022-10-19T18:35:53.524Z,14.10
2022-10-19T18:38:26.853Z,14.20
2022-10-19T18:40:56.840Z,13.91
2022-10-19T18:43:30.290Z,13.81
2022-10-19T18:46:03.403Z,14.16
2022-10-19T18:48:36.575Z,13.99
2022-10-19T18:51:11.265Z,13.78
2022-10-19T18:53:41.488Z,14.01
2022-10-19T18:56:11.135Z,13.92
2022-10-19T18:58:41.973Z,14.01
2022-10-19T19:01:11.903Z,14.15
2022-10-19T19:03:41.983Z,14.02
2022-10-19T19:06:13.054Z,14.29
2022-10-19T19:08:42.251Z,13.87
2022-10-19T19:11:15.534Z,14.14
2022-10-19T19:13:57.562Z,13.83
2022-10-19T19:16:27.365Z,14.19
2022-10-19T19:18:57.356Z,14.04
2022-10-19T19:21:27.189Z,14.09
2022-10-19T19:23:58.933Z,13.89
2022-10-19T19:26:29.029Z,13.54
2022-10-19T19:29:02.893Z,13.48
2022-10-19T19:31:32.122Z,13.11
2022-10-19T19:34:03.001Z,13.44
2022-10-19T19:36:32.009Z,13.51
2022-10-19T19:39:07.168Z,13.54
2022-10-19T19:41:35.882Z,13.76
2022-10-19T19:44:06.756Z,13.53
2022-10-19T19:46:36.775Z,13.28
2022-10-19T19:49:05.924Z,13.09
2022-10-19T19:51:37.236Z,13.26
2022-10-19T19:54:07.605Z,13.17
2022-10-19T19:56:37.738Z,12.85
2022-10-19T19:59:13.638Z,12.78
2022-10-19T20:01:42.398Z,12.64
2022-10-19T20:04:11.760Z,12.67
2022-10-19T20:06:40.922Z,12.71
2022-10-19T20:09:12.416Z,12.44
2022-10-19T20:11:42.865Z,12.30
2022-10-19T20:14:16.854Z,12.09
2022-10-19T20:16:45.909Z,12.04
2022-10-19T20:19:15.654Z,12.14
2022-10-19T20:21:44.767Z,12.16
2022-10-19T20:24:14.454Z,11.91
2022-10-19T20:26:43.468Z,11.88
2022-10-19T20:29:22.769Z,11.87
2022-10-19T20:32:03.235Z,11.86
2022-10-19T20:34:32.047Z,12.02
2022-10-19T20:37:01.226Z,11.97
2022-10-19T20:39:30.003Z,11.96
2022-10-19T20:44:33.385Z,12.19
2022-10-19T20:47:03.753Z,12.29
2022-10-19T20:49:37.029Z,12.26
2022-10-19T20:52:05.960Z,12.20
2022-10-19T20:54:34.703Z,12.15
2022-10-19T20:57:03.360Z,12.05
2022-10-19T20:59:35.295Z,12.04
2022-10-19T21:02:05.600Z,12.18
2022-10-19T21:04:34.981Z,12.16
2022-10-19T21:07:15.437Z,12.16
2022-10-19T21:09:44.242Z,12.08
2022-10-19T21:12:16.692Z,12.20
2022-10-19T21:14:49.374Z,12.11
2022-10-19T21:17:21.184Z,11.85
2022-10-19T21:19:50.799Z,11.96
2022-10-19T21:22:22.555Z,11.92
2022-10-19T21:24:51.127Z,11.87
2022-10-19T21:27:21.141Z,11.69
2022-10-19T21:29:51.663Z,11.77
2022-10-19T21:32:24.618Z,11.80
2022-10-19T21:35:03.307Z,11.77
2022-10-19T21:37:32.342Z,11.88
2022-10-19T21:40:01.145Z,11.65
2022-10-19T21:42:29.765Z,11.79
2022-10-19T21:45:25.241Z,11.79
2022-10-19T21:47:52.430Z,11.73
2022-10-19T21:50:25.708Z,11.35
2022-10-19T21:52:54.733Z,11.56
2022-10-19T21:55:26.858Z,11.48
2022-10-19T21:57:55.167Z,11.47
2022-10-19T22:00:30.856Z,11.44
2022-10-19T22:03:00.733Z,11.52
2022-10-19T22:05:32.105Z,11.32
2022-10-19T22:08:00.636Z,11.60
2022-10-19T22:10:32.822Z,11.53
2022-10-19T22:13:02.255Z,11.22
2022-10-19T22:15:33.678Z,11.43
2022-10-19T22:18:04.263Z,11.24
2022-10-19T22:20:36.205Z,11.26
2022-10-19T22:23:05.034Z,11.27
2022-10-19T22:25:36.701Z,11.19
2022-10-19T22:28:05.746Z,11.19
2022-10-19T22:30:34.580Z,11.11
2022-10-19T22:33:08.564Z,11.24
2022-10-19T22:35:40.014Z,11.07
2022-10-19T22:38:08.554Z,11.25
2022-10-19T22:40:37.348Z,11.19
2022-10-19T22:43:09.060Z,11.07
2022-10-19T22:45:39.838Z,11.19
2022-10-19T22:48:12.564Z,11.23
2022-10-19T22:50:43.229Z,11.25
2022-10-19T22:53:11.943Z,11.06
2022-10-19T22:55:42.660Z,10.92
2022-10-19T23:00:47.114Z,10.95
2022-10-19T23:03:17.788Z,11.11
2022-10-19T23:05:48.916Z,10.88
2022-10-19T23:08:17.323Z,10.87
2022-10-19T23:10:46.273Z,10.87
2022-10-19T23:13:16.551Z,10.88
2022-10-19T23:15:52.309Z,10.80
2022-10-19T23:18:22.681Z,10.71
2022-10-19T23:20:54.280Z,10.68
2022-10-19T23:23:23.339Z,10.57
2022-10-19T23:25:58.568Z,10.66
2022-10-19T23:28:28.126Z,10.53
2022-10-19T23:30:58.577Z,10.61
2022-10-19T23:33:31.512Z,10.47
2022-10-19T23:36:04.199Z,10.55
2022-10-19T23:38:37.409Z,10.52
2022-10-19T23:41:05.773Z,10.40
2022-10-19T23:43:42.187Z,10.43
2022-10-19T23:46:10.931Z,10.36
2022-10-19T23:48:43.342Z,10.40
2022-10-19T23:51:12.550Z,10.53
2022-10-19T23:53:42.968Z,10.46
2022-10-19T23:56:12.473Z,10.49
2022-10-19T23:58:46.615Z,10.45
